createdAt,value
2019-05-17T18:41:34.748Z,100668.29
2019-05-17T18:44:08.364Z,100673.09
2019-05-17T18:46:42.095Z,100682.51
2019-05-17T18:49:15.708Z,100680.70
2019-05-17T18:51:49.266Z,100680.41
2019-05-17T18:54:22.816Z,100680.38
2019-05-17T18:56:56.307Z,100683.66
2019-05-17T18:59:29.847Z,100685.36
2019-05-17T19:02:03.424Z,100683.84
2019-05-17T19:04:37.041Z,100680.48
2019-05-17T19:07:10.659Z,100684.70
2019-05-17T19:09:44.160Z,100688.09
2019-05-17T19:12:17.752Z,100697.80
2019-05-17T19:14:51.249Z,100699.47
2019-05-17T19:17:24.961Z,100702.88
2019-05-17T19:19:58.657Z,100707.74
2019-05-17T19:22:32.221Z,100708.83
2019-05-17T19:25:10.422Z,100717.75
2019-05-17T19:27:44.056Z,100712.02
2019-05-17T19:30:18.071Z,100711.71
2019-05-17T19:32:51.678Z,100716.42
2019-05-17T19:35:25.176Z,100716.17
2019-05-17T19:37:58.662Z,100718.14
2019-05-17T19:40:32.236Z,100714.99
2019-05-17T19:43:05.781Z,100713.08
2019-05-17T19:45:39.432Z,100716.02
2019-05-17T19:48:13.051Z,100716.95
2019-05-17T19:50:46.575Z,100717.94
2019-05-17T19:53:20.177Z,100721.59
2019-05-17T19:55:53.689Z,100717.62
2019-05-17T19:58:27.157Z,100722.29
2019-05-17T20:01:00.668Z,100726.55
2019-05-17T20:03:34.133Z,100726.67
2019-05-17T20:06:07.732Z,100727.27
2019-05-17T20:08:41.277Z,100727.27
2019-05-17T20:11:14.883Z,100723.71
2019-05-17T20:13:48.591Z,100728.91
2019-05-17T20:16:22.175Z,100726.74
2019-05-17T20:18:55.642Z,100729.63
2019-05-17T20:21:29.227Z,100724.83
2019-05-17T20:24:02.846Z,100720.22
2019-05-17T20:26:36.412Z,100725.48
2019-05-17T20:29:11.057Z,100720.24
2019-05-17T20:31:44.868Z,100719.44
2019-05-17T20:34:18.422Z,100718.56
2019-05-17T20:36:51.927Z,100720.09
2019-05-17T20:39:25.415Z,100717.38
2019-05-17T20:41:58.996Z,100716.98
2019-05-17T20:44:32.479Z,100715.33
2019-05-17T20:47:06.168Z,100726.22
2019-05-17T20:49:39.715Z,100717.88
2019-05-17T20:52:13.211Z,100721.93
2019-05-17T20:54:46.697Z,100717.47
2019-05-17T20:57:20.206Z,100723.02
2019-05-17T20:59:53.761Z,100716.84
2019-05-17T21:02:27.317Z,100720.05
2019-05-17T21:05:00.803Z,100706.30
2019-05-17T21:07:34.505Z,100713.30
2019-05-17T21:10:08.325Z,100704.45
2019-05-17T21:12:41.848Z,100699.52
2019-05-17T21:15:15.561Z,100699.52
2019-05-17T21:17:49.075Z,100705.81
2019-05-17T21:20:22.719Z,100706.35
2019-05-17T21:22:56.285Z,100707.47
2019-05-17T21:25:29.909Z,100698.89
2019-05-17T21:28:03.495Z,100706.73
2019-05-17T21:30:37.051Z,100706.73
2019-05-17T21:33:10.575Z,100706.02
2019-05-17T21:35:44.084Z,100696.70
2019-05-17T21:38:17.659Z,100705.20
2019-05-17T21:40:51.129Z,100705.20
2019-05-17T21:43:24.647Z,100690.81
2019-05-17T21:46:04.486Z,100698.52
2019-05-17T21:48:38.140Z,100699.05
2019-05-17T21:51:11.766Z,100700.64
2019-05-17T21:53:45.400Z,100694.42
2019-05-17T21:56:18.939Z,100705.16
2019-05-17T21:58:52.440Z,100705.16
2019-05-17T22:01:27.500Z,100707.52
2019-05-17T22:04:00.987Z,100700.98
2019-05-17T22:06:34.548Z,100708.15
2019-05-17T22:09:08.589Z,100706.80
2019-05-17T22:11:44.757Z,100705.04
2019-05-17T22:14:18.469Z,100718.33
2019-05-17T22:16:52.092Z,100712.04
2019-05-17T22:19:25.684Z,100714.27
2019-05-17T22:21:59.265Z,100706.16
2019-05-17T22:24:32.773Z,100710.22
2019-05-17T22:27:06.393Z,100711.50
2019-05-17T22:29:39.892Z,100713.80
2019-05-17T22:32:13.377Z,100716.09
2019-05-17T22:34:46.886Z,100707.11
2019-05-17T22:37:20.557Z,100707.11
2019-05-17T22:39:54.181Z,100706.11
2019-05-17T22:42:27.795Z,100709.33
2019-05-17T22:45:01.376Z,100706.39
2019-05-17T22:47:34.855Z,100708.80
2019-05-17T22:50:08.984Z,100706.73
2019-05-17T22:52:42.542Z,100701.09
2019-05-17T22:55:16.186Z,100700.55
2019-05-17T22:57:49.817Z,100705.48
2019-05-17T23:00:23.539Z,100692.41
2019-05-17T23:02:57.101Z,100692.41
2019-05-17T23:05:30.591Z,100688.82
2019-05-17T23:08:04.253Z,100690.27
2019-05-17T23:10:37.975Z,100691.16
2019-05-17T23:13:11.530Z,100690.75
2019-05-17T23:16:01.035Z,100688.11
2019-05-17T23:18:36.008Z,100691.39
2019-05-17T23:21:09.556Z,100691.39
2019-05-17T23:23:43.186Z,100689.80
2019-05-17T23:26:16.737Z,100689.80
2019-05-17T23:28:50.244Z,100684.56
2019-05-17T23:31:23.791Z,100681.68
2019-05-17T23:33:57.296Z,100674.63
2019-05-17T23:36:30.840Z,100671.18
2019-05-17T23:39:06.499Z,100671.18
2019-05-17T23:41:40.008Z,100680.41
2019-05-17T23:44:13.512Z,100686.12
2019-05-17T23:46:46.985Z,100679.09
2019-05-17T23:49:20.626Z,100679.09
2019-05-17T23:51:54.246Z,100682.43
2019-05-17T23:54:27.755Z,100685.00
2019-05-17T23:57:01.559Z,100679.36
2019-05-17T23:59:35.060Z,100678.82
